UAL900 OMDB-KDEN
Flight info
| Callsign | UAL900 |
|---|---|
| Flight time | N/A |
| Altitude | 28000 |
| Route | DAVMO M318 GABKO M317 ROTAL P574 SYZ P550 YSJ/N0504F300 P550 DASIS UL746 EVGEG/N0492F320 UL746 ODERO L746 LUGEB DCT MOPUG DCT PUSTA DCT BEGLA DCT ADLET DCT DEXIT DCT INBED DCT BOMBI DCT ADKUV DCT KENUM DCT NIK L610 KOPUL Q60 OKSAW DCT TEWXI DCT LIPGO/N0483F340 DCT REVNU DCT PIKIL/M084F350 NATA URTAK/N0498F360 DCT LAKES DCT 5630N07000W 5330N08000W 4930N09000W DCT KP84A DCT NYTRO AALLE4 |
| Aircraft | B77W/H-SDE1E2E3FGHIJ2J3J4J5M1RWXY/LB1D1 |
Departure
| Time | 2026-05-06 05:20 |
|---|---|
| Airport | Dubai International Airport (OMDB) |
Arrival
| Time | N/A |
|---|---|
| Airport | Denver International Airport (KDEN) |
| Time | Latitude | Longitude | Altitude | Speed | Heading |
|---|---|---|---|---|---|
| 2026-05-06 04:57 | 25.24501 | 55.36905 | 49 ft | 0 kts | 121° |
| 2026-05-06 05:06 | 25.24501 | 55.36904 | 48 ft | 1 kts | 121° |
| 2026-05-06 05:06 | 25.24509 | 55.36891 | 48 ft | 2 kts | 121° |
| 2026-05-06 05:06 | 25.24518 | 55.36875 | 47 ft | 2 kts | 120° |
| 2026-05-06 05:07 | 25.24525 | 55.36863 | 46 ft | 2 kts | 115° |
| 2026-05-06 05:07 | 25.24530 | 55.36846 | 46 ft | 2 kts | 96° |
| 2026-05-06 05:07 | 25.24530 | 55.36829 | 46 ft | 2 kts | 82° |
| 2026-05-06 05:07 | 25.24527 | 55.36813 | 46 ft | 2 kts | 68° |
| 2026-05-06 05:08 | 25.24520 | 55.36798 | 45 ft | 2 kts | 53° |
| 2026-05-06 05:08 | 25.24507 | 55.36783 | 44 ft | 2 kts | 34° |
| 2026-05-06 05:08 | 25.24500 | 55.36777 | 43 ft | 1 kts | 30° |
| 2026-05-06 05:08 | 25.24499 | 55.36777 | 43 ft | 0 kts | 30° |
| 2026-05-06 05:11 | 25.24500 | 55.36778 | 43 ft | 1 kts | 30° |
| 2026-05-06 05:11 | 25.24512 | 55.36785 | 44 ft | 0 kts | 31° |
| 2026-05-06 05:11 | 25.24519 | 55.36790 | 44 ft | 2 kts | 31° |
| 2026-05-06 05:12 | 25.24528 | 55.36795 | 45 ft | 0 kts | 32° |
| 2026-05-06 05:12 | 25.24534 | 55.36799 | 45 ft | 3 kts | 32° |
| 2026-05-06 05:13 | 25.24589 | 55.36837 | 40 ft | 12 kts | 31° |
| 2026-05-06 05:13 | 25.24657 | 55.36883 | 38 ft | 8 kts | 31° |
| 2026-05-06 05:13 | 25.24678 | 55.36898 | 40 ft | 0 kts | 30° |
| 2026-05-06 05:13 | 25.24700 | 55.36911 | 44 ft | 5 kts | 28° |
| 2026-05-06 05:14 | 25.24741 | 55.36936 | 50 ft | 9 kts | 30° |
| 2026-05-06 05:14 | 25.24818 | 55.36986 | 51 ft | 13 kts | 30° |
| 2026-05-06 05:14 | 25.24911 | 55.37047 | 51 ft | 13 kts | 31° |
| 2026-05-06 05:14 | 25.24989 | 55.37099 | 51 ft | 12 kts | 31° |
| 2026-05-06 05:15 | 25.25056 | 55.37159 | 51 ft | 9 kts | 61° |
| 2026-05-06 05:15 | 25.25046 | 55.37225 | 51 ft | 9 kts | 115° |
| 2026-05-06 05:15 | 25.25011 | 55.37294 | 51 ft | 11 kts | 121° |
| 2026-05-06 05:15 | 25.24960 | 55.37384 | 52 ft | 13 kts | 122° |
| 2026-05-06 05:16 | 25.24907 | 55.37477 | 54 ft | 13 kts | 121° |
| 2026-05-06 05:16 | 25.24854 | 55.37578 | 55 ft | 13 kts | 120° |
| 2026-05-06 05:16 | 25.24804 | 55.37671 | 55 ft | 12 kts | 121° |
| 2026-05-06 05:16 | 25.24756 | 55.37757 | 55 ft | 12 kts | 121° |
| 2026-05-06 05:17 | 25.24710 | 55.37840 | 55 ft | 11 kts | 121° |
| 2026-05-06 05:17 | 25.24664 | 55.37921 | 56 ft | 10 kts | 121° |
| 2026-05-06 05:17 | 25.24628 | 55.37987 | 58 ft | 8 kts | 121° |
| 2026-05-06 05:17 | 25.24592 | 55.38051 | 58 ft | 10 kts | 121° |
| 2026-05-06 05:18 | 25.24555 | 55.38117 | 58 ft | 7 kts | 121° |
| 2026-05-06 05:18 | 25.24525 | 55.38174 | 58 ft | 7 kts | 117° |
| 2026-05-06 05:18 | 25.24515 | 55.38225 | 59 ft | 5 kts | 84° |
| 2026-05-06 05:18 | 25.24536 | 55.38267 | 60 ft | 6 kts | 40° |
| 2026-05-06 05:19 | 25.24577 | 55.38297 | 60 ft | 6 kts | 29° |
| 2026-05-06 05:19 | 25.24628 | 55.38313 | 59 ft | 6 kts | 351° |
| 2026-05-06 05:19 | 25.24663 | 55.38280 | 58 ft | 7 kts | 306° |
| 2026-05-06 05:19 | 25.24818 | 55.38005 | 58 ft | 73 kts | 301° |
| 2026-05-06 05:20 | 25.25237 | 55.37246 | 52 ft | 139 kts | 302° |
| 2026-05-06 05:20 | 25.25884 | 55.36082 | 43 ft | 198 kts | 301° |
| 2026-05-06 05:20 | 25.26653 | 55.34678 | 391 ft | 217 kts | 300° |
| 2026-05-06 05:20 | 25.27426 | 55.33243 | 1066 ft | 227 kts | 300° |
| 2026-05-06 05:21 | 25.28251 | 55.31727 | 1553 ft | 234 kts | 301° |
| 2026-05-06 05:21 | 25.29265 | 55.30292 | 1850 ft | 244 kts | 321° |
| 2026-05-06 05:21 | 25.30803 | 55.29502 | 2302 ft | 242 kts | 355° |
| 2026-05-06 05:21 | 25.32495 | 55.29478 | 2825 ft | 240 kts | 4° |
| 2026-05-06 05:22 | 25.34162 | 55.29562 | 3213 ft | 246 kts | 3° |
| 2026-05-06 05:22 | 25.35887 | 55.29620 | 3743 ft | 245 kts | 2° |
| 2026-05-06 05:22 | 25.37574 | 55.29663 | 4397 ft | 240 kts | 2° |
| 2026-05-06 05:22 | 25.39238 | 55.29720 | 4917 ft | 239 kts | 8° |
| 2026-05-06 05:23 | 25.40834 | 55.30194 | 5253 ft | 244 kts | 23° |
| 2026-05-06 05:23 | 25.42476 | 55.30947 | 5415 ft | 262 kts | 24° |
| 2026-05-06 05:23 | 25.45970 | 55.32581 | 6154 ft | 280 kts | 24° |
| 2026-05-06 05:24 | 25.47800 | 55.33432 | 6555 ft | 288 kts | 24° |
| 2026-05-06 05:24 | 25.49655 | 55.34294 | 7102 ft | 291 kts | 24° |
| 2026-05-06 05:24 | 25.51515 | 55.35159 | 7627 ft | 293 kts | 24° |
| 2026-05-06 05:24 | 25.53409 | 55.36040 | 8199 ft | 294 kts | 24° |
| 2026-05-06 05:25 | 25.55306 | 55.36923 | 8764 ft | 297 kts | 24° |
| 2026-05-06 05:25 | 25.57215 | 55.37820 | 9300 ft | 298 kts | 27° |
| 2026-05-06 05:25 | 25.58997 | 55.39003 | 9821 ft | 299 kts | 36° |
| 2026-05-06 05:25 | 25.60712 | 55.40342 | 10267 ft | 304 kts | 36° |
| 2026-05-06 05:26 | 25.62480 | 55.41737 | 10475 ft | 319 kts | 36° |
| 2026-05-06 05:26 | 25.64351 | 55.43205 | 10658 ft | 335 kts | 36° |
| 2026-05-06 05:26 | 25.66292 | 55.44730 | 10872 ft | 349 kts | 38° |
| 2026-05-06 05:26 | 25.68162 | 55.46524 | 11072 ft | 363 kts | 44° |
| 2026-05-06 05:27 | 25.70039 | 55.48490 | 11292 ft | 377 kts | 44° |
| 2026-05-06 05:27 | 25.71966 | 55.50515 | 11625 ft | 386 kts | 44° |
| 2026-05-06 05:27 | 25.73938 | 55.52586 | 12149 ft | 390 kts | 44° |
| 2026-05-06 05:27 | 25.75890 | 55.54637 | 12748 ft | 392 kts | 44° |
| 2026-05-06 05:28 | 25.77885 | 55.56732 | 13274 ft | 395 kts | 44° |
| 2026-05-06 05:28 | 25.79885 | 55.58834 | 13756 ft | 400 kts | 44° |
| 2026-05-06 05:28 | 25.81919 | 55.60972 | 14235 ft | 405 kts | 44° |
| 2026-05-06 05:28 | 25.83978 | 55.63135 | 14733 ft | 408 kts | 44° |
| 2026-05-06 05:29 | 25.86149 | 55.65223 | 15186 ft | 413 kts | 36° |
| 2026-05-06 05:29 | 25.88553 | 55.66996 | 15640 ft | 418 kts | 33° |
| 2026-05-06 05:29 | 25.91048 | 55.68755 | 16126 ft | 422 kts | 33° |
| 2026-05-06 05:29 | 25.93513 | 55.70491 | 16590 ft | 425 kts | 32° |
| 2026-05-06 05:30 | 25.96047 | 55.72278 | 17021 ft | 430 kts | 32° |
| 2026-05-06 05:30 | 25.98581 | 55.74067 | 17461 ft | 433 kts | 32° |
| 2026-05-06 05:30 | 26.01114 | 55.75856 | 17911 ft | 436 kts | 32° |
| 2026-05-06 05:30 | 26.03792 | 55.77538 | 18313 ft | 440 kts | 24° |
| 2026-05-06 05:31 | 26.06681 | 55.78715 | 18685 ft | 444 kts | 14° |
| 2026-05-06 05:31 | 26.09730 | 55.79341 | 19104 ft | 446 kts | 5° |
| 2026-05-06 05:31 | 26.12824 | 55.79398 | 19512 ft | 449 kts | 355° |
| 2026-05-06 05:31 | 26.15922 | 55.78892 | 19914 ft | 451 kts | 346° |
| 2026-05-06 05:32 | 26.18923 | 55.77825 | 20339 ft | 452 kts | 336° |
| 2026-05-06 05:32 | 26.21698 | 55.76248 | 20721 ft | 454 kts | 327° |
| 2026-05-06 05:32 | 26.24269 | 55.74132 | 21121 ft | 456 kts | 317° |
| 2026-05-06 05:32 | 26.26460 | 55.71603 | 21569 ft | 456 kts | 308° |
| 2026-05-06 05:33 | 26.28277 | 55.68734 | 21980 ft | 457 kts | 302° |
| 2026-05-06 05:33 | 26.30026 | 55.65756 | 22385 ft | 460 kts | 303° |
| 2026-05-06 05:33 | 26.31849 | 55.62801 | 22775 ft | 462 kts | 304° |
| 2026-05-06 05:33 | 26.33709 | 55.59915 | 23157 ft | 465 kts | 305° |
| 2026-05-06 05:34 | 26.35638 | 55.57016 | 23552 ft | 466 kts | 306° |
| 2026-05-06 05:34 | 26.37619 | 55.54109 | 23906 ft | 469 kts | 306° |
| 2026-05-06 05:34 | 26.39600 | 55.51249 | 24218 ft | 472 kts | 306° |
| 2026-05-06 05:34 | 26.41624 | 55.48373 | 24573 ft | 474 kts | 307° |
| 2026-05-06 05:35 | 26.43679 | 55.45479 | 24977 ft | 474 kts | 307° |
| 2026-05-06 05:35 | 26.45735 | 55.42597 | 25375 ft | 475 kts | 307° |
| 2026-05-06 05:35 | 26.47799 | 55.39714 | 25725 ft | 476 kts | 307° |
| 2026-05-06 05:35 | 26.49876 | 55.36821 | 26057 ft | 478 kts | 306° |